UMKK Airport Information

Runway Information
Runway 06 Length 10991 ft width 148 ft
Elevation 42 ft Threshold ft Heading 66
Runway 24 Length 10991 ft Width 148 ft
Elevation 31 ft Threshold ft Heading 246
Airport Frequencies
Type GND Name KALININGRA Frequency 126 MHZ
Type MISC Name KALININGGR Frequency 131.7 MHZ
Type PMSV Name KALININGRA Frequency 122.05 MHZ
Type RDR Name KALININGRA Frequency 126 MHZ
Type TWR Name KALININGRA Frequency 129.425 MHZ
Type VOR-DME Name KRD Frequency 117.05 MHZ
Airport Navaids
Type NDB Name Kaliningrad Frequency 840 KHZ
Airport Weather Information & NOTAM
ADDS - METARS form results

(1341 UTC 15 August 2022)
Data provider http://aviationweather.gov/metar/data/
 
METAR text: UMKK 151330Z 10006MPS 070V130 CAVOK 29/19 Q1009 R06/95D NOSIG RMK QFE756/1008
Conditions at: UMKK (KALININGRAD , RU) observed 1330 UTC 15 August 2022
Temperature: 29.0°C (84°F)
Dewpoint: 19.0°C (66°F) [RH = 55%]
Pressure (altimeter): 29.79 inches Hg (1009.0 mb)
Winds: from the E (100 degrees) at 14 MPH (12 knots; 6.2 m/s)
Visibility: 6 or more miles (10+ km)
Ceiling: ceiling and visibility are OK
Clouds: unknown
Weather: no significant weather observed at this time

METAR text: UMKK 151300Z 09006MPS CAVOK 29/19 Q1010 R06/95D NOSIG RMK QFE756/1008
Conditions at: UMKK (KALININGRAD , RU) observed 1300 UTC 15 August 2022
Temperature: 29.0°C (84°F)
Dewpoint: 19.0°C (66°F) [RH = 55%]
Pressure (altimeter): 29.82 inches Hg (1010.0 mb)
Winds: from the E (90 degrees) at 14 MPH (12 knots; 6.2 m/s)
Visibility: 6 or more miles (10+ km)
Ceiling: ceiling and visibility are OK
Clouds: unknown
Weather: no significant weather observed at this time

Forecast for: UMKK (KALININGRAD , RU)
Text: TAF UMKK 151057Z 1512/1612 10005G10MPS 9999 SCT030
Forecast period: 1200 UTC 15 August 2022 to 1200 UTC 16 August 2022
Forecast type: FROM: standard forecast or significant change
Winds: from the E (100 degrees) at 12 MPH (10 knots; 5.1 m/s)
gusting to 22 MPH (19 knots; 9.8 m/s)
Visibility: 6 or more miles (10+ km)
Ceiling: at least 12,000 feet AGL
Clouds: scattered clouds at 3000 feet AGL
Weather: no significant weather forecast for this period
Text: TEMPO 1512/1601 14008G15MPS 2000 TSRAGR BKN016CB
Forecast period: 1200 UTC 15 August 2022 to 0100 UTC 16 August 2022
Forecast type: TEMPORARY: The following changes expected for less than half the time period
Winds: from the SE (140 degrees) at 18 MPH (16 knots; 8.2 m/s)
gusting to 33 MPH (29 knots; 14.9 m/s)
Visibility: 1.24 miles (2.00 km)
Ceiling: 1600 feet AGL
Clouds: broken clouds at 1600 feet AGL
Weather: TSRA TSGR  (rain associated with thunderstorm(s), hail associated with thunderstorm(s))